sensor_id;sensor_type;location;lat;lon;timestamp;temperature;humidity
12817;DHT22;6473;51.552;6.716;2023-05-23T00:01:00;15.50;99.90
12817;DHT22;6473;51.552;6.716;2023-05-23T00:03:27;15.50;99.90
12817;DHT22;6473;51.552;6.716;2023-05-23T00:05:57;15.50;99.90
12817;DHT22;6473;51.552;6.716;2023-05-23T00:08:24;15.50;99.90
12817;DHT22;6473;51.552;6.716;2023-05-23T00:10:51;15.50;99.90
12817;DHT22;6473;51.552;6.716;2023-05-23T00:13:18;15.50;99.90
12817;DHT22;6473;51.552;6.716;2023-05-23T00:15:45;15.50;99.90
12817;DHT22;6473;51.552;6.716;2023-05-23T00:18:13;15.40;99.90
12817;DHT22;6473;51.552;6.716;2023-05-23T00:20:41;15.50;99.90
12817;DHT22;6473;51.552;6.716;2023-05-23T00:23:10;15.50;99.90
12817;DHT22;6473;51.552;6.716;2023-05-23T00:25:43;15.60;99.90
12817;DHT22;6473;51.552;6.716;2023-05-23T00:28:13;15.50;99.90
12817;DHT22;6473;51.552;6.716;2023-05-23T00:30:40;15.50;99.90
12817;DHT22;6473;51.552;6.716;2023-05-23T00:33:07;15.50;99.90
12817;DHT22;6473;51.552;6.716;2023-05-23T00:35:34;15.40;99.90
12817;DHT22;6473;51.552;6.716;2023-05-23T00:38:01;15.40;99.90
12817;DHT22;6473;51.552;6.716;2023-05-23T00:40:29;15.40;99.90
12817;DHT22;6473;51.552;6.716;2023-05-23T00:42:56;15.50;99.90
12817;DHT22;6473;51.552;6.716;2023-05-23T00:45:23;15.50;99.90
12817;DHT22;6473;51.552;6.716;2023-05-23T00:47:50;15.50;99.90
12817;DHT22;6473;51.552;6.716;2023-05-23T00:50:17;15.40;99.90
12817;DHT22;6473;51.552;6.716;2023-05-23T00:52:47;15.40;99.90
12817;DHT22;6473;51.552;6.716;2023-05-23T00:55:14;15.40;99.90
12817;DHT22;6473;51.552;6.716;2023-05-23T00:57:42;15.50;99.90
12817;DHT22;6473;51.552;6.716;2023-05-23T01:00:12;15.50;99.90
12817;DHT22;6473;51.552;6.716;2023-05-23T01:02:42;15.50;99.90
12817;DHT22;6473;51.552;6.716;2023-05-23T01:05:10;15.50;99.90
12817;DHT22;6473;51.552;6.716;2023-05-23T01:07:39;15.50;99.90
12817;DHT22;6473;51.552;6.716;2023-05-23T01:10:07;15.40;99.90
12817;DHT22;6473;51.552;6.716;2023-05-23T01:12:40;15.50;99.90
12817;DHT22;6473;51.552;6.716;2023-05-23T01:15:12;15.50;99.90
12817;DHT22;6473;51.552;6.716;2023-05-23T01:17:56;15.40;99.90
12817;DHT22;6473;51.552;6.716;2023-05-23T01:20:27;15.40;99.90
12817;DHT22;6473;51.552;6.716;2023-05-23T01:23:14;15.40;99.90
12817;DHT22;6473;51.552;6.716;2023-05-23T01:25:48;15.40;99.90
12817;DHT22;6473;51.552;6.716;2023-05-23T01:28:27;15.40;99.90
12817;DHT22;6473;51.552;6.716;2023-05-23T01:30:57;15.40;99.90
12817;DHT22;6473;51.552;6.716;2023-05-23T01:33:24;15.40;99.90
12817;DHT22;6473;51.552;6.716;2023-05-23T01:35:55;15.40;99.90
12817;DHT22;6473;51.552;6.716;2023-05-23T01:38:22;15.30;99.90
12817;DHT22;6473;51.552;6.716;2023-05-23T01:40:49;15.40;99.90
12817;DHT22;6473;51.552;6.716;2023-05-23T01:43:16;15.40;99.90
12817;DHT22;6473;51.552;6.716;2023-05-23T01:45:44;15.40;99.90
12817;DHT22;6473;51.552;6.716;2023-05-23T01:48:12;15.30;99.90
12817;DHT22;6473;51.552;6.716;2023-05-23T01:50:41;15.40;99.90
12817;DHT22;6473;51.552;6.716;2023-05-23T01:53:10;15.40;99.90
12817;DHT22;6473;51.552;6.716;2023-05-23T01:55:39;15.40;99.90
12817;DHT22;6473;51.552;6.716;2023-05-23T01:58:07;15.40;99.90
12817;DHT22;6473;51.552;6.716;2023-05-23T02:00:34;15.40;99.90
12817;DHT22;6473;51.552;6.716;2023-05-23T02:03:03;15.40;99.90
12817;DHT22;6473;51.552;6.716;2023-05-23T02:05:31;15.40;99.90
12817;DHT22;6473;51.552;6.716;2023-05-23T02:08:00;15.40;99.90
12817;DHT22;6473;51.552;6.716;2023-05-23T02:10:28;15.40;99.90
12817;DHT22;6473;51.552;6.716;2023-05-23T02:12:54;15.40;99.90
12817;DHT22;6473;51.552;6.716;2023-05-23T02:15:21;15.30;99.90
12817;DHT22;6473;51.552;6.716;2023-05-23T02:17:48;15.30;99.90
12817;DHT22;6473;51.552;6.716;2023-05-23T02:20:17;15.30;99.90
12817;DHT22;6473;51.552;6.716;2023-05-23T02:22:47;15.30;99.90
12817;DHT22;6473;51.552;6.716;2023-05-23T02:25:14;15.30;99.90
12817;DHT22;6473;51.552;6.716;2023-05-23T02:27:41;15.20;99.90
12817;DHT22;6473;51.552;6.716;2023-05-23T02:30:09;15.30;99.90
12817;DHT22;6473;51.552;6.716;2023-05-23T02:32:36;15.20;99.90
12817;DHT22;6473;51.552;6.716;2023-05-23T02:35:04;15.20;99.90
12817;DHT22;6473;51.552;6.716;2023-05-23T02:37:33;15.20;99.90
12817;DHT22;6473;51.552;6.716;2023-05-23T02:40:00;15.10;99.90
12817;DHT22;6473;51.552;6.716;2023-05-23T02:42:26;15.10;99.90
12817;DHT22;6473;51.552;6.716;2023-05-23T02:44:53;15.30;99.90
12817;DHT22;6473;51.552;6.716;2023-05-23T02:47:20;15.10;99.90
12817;DHT22;6473;51.552;6.716;2023-05-23T02:49:47;15.00;99.90
12817;DHT22;6473;51.552;6.716;2023-05-23T02:52:14;15.00;99.90
12817;DHT22;6473;51.552;6.716;2023-05-23T02:54:42;15.00;99.90
12817;DHT22;6473;51.552;6.716;2023-05-23T02:57:09;15.00;99.90
12817;DHT22;6473;51.552;6.716;2023-05-23T02:59:39;15.00;99.90
12817;DHT22;6473;51.552;6.716;2023-05-23T03:02:06;15.00;99.90
12817;DHT22;6473;51.552;6.716;2023-05-23T03:04:33;15.00;99.90
12817;DHT22;6473;51.552;6.716;2023-05-23T03:06:59;15.00;99.90
12817;DHT22;6473;51.552;6.716;2023-05-23T03:09:27;15.00;99.90
12817;DHT22;6473;51.552;6.716;2023-05-23T03:11:56;15.10;99.90
12817;DHT22;6473;51.552;6.716;2023-05-23T03:14:23;14.90;99.90
12817;DHT22;6473;51.552;6.716;2023-05-23T03:16:49;14.90;99.90
12817;DHT22;6473;51.552;6.716;2023-05-23T03:19:16;14.90;99.90
12817;DHT22;6473;51.552;6.716;2023-05-23T03:21:43;14.90;99.90
12817;DHT22;6473;51.552;6.716;2023-05-23T03:24:11;14.90;99.90
12817;DHT22;6473;51.552;6.716;2023-05-23T03:26:37;14.00;99.90
12817;DHT22;6473;51.552;6.716;2023-05-23T03:29:06;14.90;99.90
12817;DHT22;6473;51.552;6.716;2023-05-23T03:31:35;14.90;99.90
12817;DHT22;6473;51.552;6.716;2023-05-23T03:34:02;14.80;99.90
12817;DHT22;6473;51.552;6.716;2023-05-23T03:36:30;14.80;99.90
12817;DHT22;6473;51.552;6.716;2023-05-23T03:38:58;14.80;99.90
12817;DHT22;6473;51.552;6.716;2023-05-23T03:41:25;14.80;99.90
12817;DHT22;6473;51.552;6.716;2023-05-23T03:43:52;14.80;99.90
12817;DHT22;6473;51.552;6.716;2023-05-23T03:46:20;14.80;99.90
12817;DHT22;6473;51.552;6.716;2023-05-23T03:48:47;14.80;99.90
12817;DHT22;6473;51.552;6.716;2023-05-23T03:51:14;14.80;99.90
12817;DHT22;6473;51.552;6.716;2023-05-23T03:53:40;14.80;99.90
12817;DHT22;6473;51.552;6.716;2023-05-23T03:56:08;14.80;99.90
12817;DHT22;6473;51.552;6.716;2023-05-23T03:58:35;14.80;99.90
12817;DHT22;6473;51.552;6.716;2023-05-23T04:01:07;14.80;99.90
12817;DHT22;6473;51.552;6.716;2023-05-23T04:03:36;14.80;99.90
12817;DHT22;6473;51.552;6.716;2023-05-23T04:06:03;14.80;99.90
12817;DHT22;6473;51.552;6.716;2023-05-23T04:08:31;14.80;99.90
12817;DHT22;6473;51.552;6.716;2023-05-23T04:11:00;14.80;99.90
12817;DHT22;6473;51.552;6.716;2023-05-23T04:13:29;14.80;99.90
12817;DHT22;6473;51.552;6.716;2023-05-23T04:15:57;14.80;99.90
12817;DHT22;6473;51.552;6.716;2023-05-23T04:18:26;14.80;99.90
12817;DHT22;6473;51.552;6.716;2023-05-23T04:20:56;14.70;99.90
12817;DHT22;6473;51.552;6.716;2023-05-23T04:23:23;14.70;99.90
12817;DHT22;6473;51.552;6.716;2023-05-23T04:25:52;14.70;99.90
12817;DHT22;6473;51.552;6.716;2023-05-23T04:28:30;14.70;99.90
12817;DHT22;6473;51.552;6.716;2023-05-23T04:30:57;14.60;99.90
12817;DHT22;6473;51.552;6.716;2023-05-23T04:33:27;14.60;99.90
12817;DHT22;6473;51.552;6.716;2023-05-23T04:35:56;14.60;99.90
12817;DHT22;6473;51.552;6.716;2023-05-23T04:38:23;14.70;99.90
12817;DHT22;6473;51.552;6.716;2023-05-23T04:40:50;14.60;99.90
12817;DHT22;6473;51.552;6.716;2023-05-23T04:43:36;14.60;99.90
12817;DHT22;6473;51.552;6.716;2023-05-23T04:46:21;14.60;99.90
12817;DHT22;6473;51.552;6.716;2023-05-23T04:49:03;14.60;99.90
12817;DHT22;6473;51.552;6.716;2023-05-23T04:51:31;14.60;99.90
12817;DHT22;6473;51.552;6.716;2023-05-23T04:54:08;14.60;99.90
12817;DHT22;6473;51.552;6.716;2023-05-23T04:56:36;14.60;99.90
12817;DHT22;6473;51.552;6.716;2023-05-23T04:59:03;14.60;99.90
12817;DHT22;6473;51.552;6.716;2023-05-23T05:01:30;14.60;99.90
12817;DHT22;6473;51.552;6.716;2023-05-23T05:03:59;14.60;99.90
12817;DHT22;6473;51.552;6.716;2023-05-23T05:06:26;14.60;99.90
12817;DHT22;6473;51.552;6.716;2023-05-23T05:08:54;14.60;99.90
12817;DHT22;6473;51.552;6.716;2023-05-23T05:11:21;14.70;99.90
12817;DHT22;6473;51.552;6.716;2023-05-23T05:13:48;14.60;99.90
12817;DHT22;6473;51.552;6.716;2023-05-23T05:16:15;14.60;99.90
12817;DHT22;6473;51.552;6.716;2023-05-23T05:18:42;14.70;99.90
12817;DHT22;6473;51.552;6.716;2023-05-23T05:21:09;14.70;99.90
12817;DHT22;6473;51.552;6.716;2023-05-23T05:23:36;14.70;99.90
12817;DHT22;6473;51.552;6.716;2023-05-23T05:26:06;14.70;99.90
12817;DHT22;6473;51.552;6.716;2023-05-23T05:28:33;14.70;99.90
12817;DHT22;6473;51.552;6.716;2023-05-23T05:31:01;14.70;99.90
12817;DHT22;6473;51.552;6.716;2023-05-23T05:33:29;14.70;99.90
12817;DHT22;6473;51.552;6.716;2023-05-23T05:36:07;14.90;99.90
12817;DHT22;6473;51.552;6.716;2023-05-23T05:38:35;14.70;99.90
12817;DHT22;6473;51.552;6.716;2023-05-23T05:41:02;14.70;99.90
12817;DHT22;6473;51.552;6.716;2023-05-23T05:43:35;14.70;99.90
12817;DHT22;6473;51.552;6.716;2023-05-23T05:46:02;14.60;99.90
12817;DHT22;6473;51.552;6.716;2023-05-23T05:48:30;14.60;99.90
12817;DHT22;6473;51.552;6.716;2023-05-23T05:51:01;14.60;99.90
12817;DHT22;6473;51.552;6.716;2023-05-23T05:53:30;14.70;99.90
12817;DHT22;6473;51.552;6.716;2023-05-23T05:55:57;14.70;99.90
12817;DHT22;6473;51.552;6.716;2023-05-23T05:58:24;14.80;99.90
12817;DHT22;6473;51.552;6.716;2023-05-23T06:00:57;14.80;99.90
12817;DHT22;6473;51.552;6.716;2023-05-23T06:03:24;14.80;99.90
12817;DHT22;6473;51.552;6.716;2023-05-23T06:05:53;14.90;99.90
12817;DHT22;6473;51.552;6.716;2023-05-23T06:08:21;14.90;99.90
12817;DHT22;6473;51.552;6.716;2023-05-23T06:10:48;14.90;99.90
12817;DHT22;6473;51.552;6.716;2023-05-23T06:13:15;15.00;99.90
12817;DHT22;6473;51.552;6.716;2023-05-23T06:15:45;15.10;99.90
12817;DHT22;6473;51.552;6.716;2023-05-23T06:18:14;15.10;99.90
12817;DHT22;6473;51.552;6.716;2023-05-23T06:20:41;15.00;99.90
12817;DHT22;6473;51.552;6.716;2023-05-23T06:23:12;14.90;99.90
12817;DHT22;6473;51.552;6.716;2023-05-23T06:25:39;14.90;99.90
12817;DHT22;6473;51.552;6.716;2023-05-23T06:28:06;15.00;99.90
12817;DHT22;6473;51.552;6.716;2023-05-23T06:30:33;15.10;99.90
12817;DHT22;6473;51.552;6.716;2023-05-23T06:33:00;15.10;99.90
12817;DHT22;6473;51.552;6.716;2023-05-23T06:35:29;15.20;99.90
12817;DHT22;6473;51.552;6.716;2023-05-23T06:37:55;15.00;99.90
12817;DHT22;6473;51.552;6.716;2023-05-23T06:40:22;15.00;99.90
12817;DHT22;6473;51.552;6.716;2023-05-23T06:42:50;14.90;99.90
12817;DHT22;6473;51.552;6.716;2023-05-23T06:45:53;15.00;99.90
12817;DHT22;6473;51.552;6.716;2023-05-23T06:48:20;15.00;99.90
12817;DHT22;6473;51.552;6.716;2023-05-23T06:50:49;15.00;99.90
12817;DHT22;6473;51.552;6.716;2023-05-23T06:53:17;15.00;99.90
12817;DHT22;6473;51.552;6.716;2023-05-23T06:55:45;15.00;99.90
12817;DHT22;6473;51.552;6.716;2023-05-23T06:58:14;15.00;99.90
12817;DHT22;6473;51.552;6.716;2023-05-23T07:00:41;14.90;99.90
12817;DHT22;6473;51.552;6.716;2023-05-23T07:03:19;14.90;99.90
12817;DHT22;6473;51.552;6.716;2023-05-23T07:05:46;14.80;99.90
12817;DHT22;6473;51.552;6.716;2023-05-23T07:08:16;14.70;99.90
12817;DHT22;6473;51.552;6.716;2023-05-23T07:10:54;14.60;99.90
12817;DHT22;6473;51.552;6.716;2023-05-23T07:13:31;14.70;99.90
12817;DHT22;6473;51.552;6.716;2023-05-23T07:15:59;14.70;99.90
12817;DHT22;6473;51.552;6.716;2023-05-23T07:18:26;14.70;99.90
12817;DHT22;6473;51.552;6.716;2023-05-23T07:20:53;14.60;99.90
12817;DHT22;6473;51.552;6.716;2023-05-23T07:23:23;14.60;99.90
12817;DHT22;6473;51.552;6.716;2023-05-23T07:25:50;14.50;99.90
12817;DHT22;6473;51.552;6.716;2023-05-23T07:28:24;14.50;99.90
12817;DHT22;6473;51.552;6.716;2023-05-23T07:30:52;14.50;99.90
12817;DHT22;6473;51.552;6.716;2023-05-23T07:33:19;14.40;99.90
12817;DHT22;6473;51.552;6.716;2023-05-23T07:35:47;14.30;99.90
12817;DHT22;6473;51.552;6.716;2023-05-23T07:38:14;14.20;99.90
12817;DHT22;6473;51.552;6.716;2023-05-23T07:40:42;14.20;99.90
12817;DHT22;6473;51.552;6.716;2023-05-23T07:43:09;14.10;99.90
12817;DHT22;6473;51.552;6.716;2023-05-23T07:45:36;14.10;99.90
12817;DHT22;6473;51.552;6.716;2023-05-23T07:48:03;14.40;99.90
12817;DHT22;6473;51.552;6.716;2023-05-23T07:50:30;14.00;99.90
12817;DHT22;6473;51.552;6.716;2023-05-23T07:52:58;14.00;99.90
12817;DHT22;6473;51.552;6.716;2023-05-23T07:55:28;13.90;99.90
12817;DHT22;6473;51.552;6.716;2023-05-23T07:57:58;13.90;99.90
12817;DHT22;6473;51.552;6.716;2023-05-23T08:00:26;13.70;99.90
12817;DHT22;6473;51.552;6.716;2023-05-23T08:03:00;13.80;99.90
12817;DHT22;6473;51.552;6.716;2023-05-23T08:05:34;13.70;99.90
12817;DHT22;6473;51.552;6.716;2023-05-23T08:08:01;13.70;99.90
12817;DHT22;6473;51.552;6.716;2023-05-23T08:10:29;14.40;99.90
12817;DHT22;6473;51.552;6.716;2023-05-23T08:13:05;13.50;99.90
12817;DHT22;6473;51.552;6.716;2023-05-23T08:15:37;13.60;99.90
12817;DHT22;6473;51.552;6.716;2023-05-23T08:18:13;13.70;99.90
12817;DHT22;6473;51.552;6.716;2023-05-23T08:20:41;13.60;99.90
12817;DHT22;6473;51.552;6.716;2023-05-23T08:23:08;13.70;99.90
12817;DHT22;6473;51.552;6.716;2023-05-23T08:25:36;13.70;99.90
12817;DHT22;6473;51.552;6.716;2023-05-23T08:28:05;13.60;99.90
12817;DHT22;6473;51.552;6.716;2023-05-23T08:30:50;13.50;99.90
12817;DHT22;6473;51.552;6.716;2023-05-23T08:33:18;13.50;99.90
12817;DHT22;6473;51.552;6.716;2023-05-23T08:35:48;13.40;99.90
12817;DHT22;6473;51.552;6.716;2023-05-23T08:38:17;13.30;99.90
12817;DHT22;6473;51.552;6.716;2023-05-23T08:41:04;13.30;99.90
12817;DHT22;6473;51.552;6.716;2023-05-23T08:43:37;13.30;99.90
12817;DHT22;6473;51.552;6.716;2023-05-23T08:46:07;15.10;99.90
12817;DHT22;6473;51.552;6.716;2023-05-23T08:48:37;13.30;99.90
12817;DHT22;6473;51.552;6.716;2023-05-23T08:51:06;13.40;99.90
12817;DHT22;6473;51.552;6.716;2023-05-23T08:53:35;13.50;99.90
12817;DHT22;6473;51.552;6.716;2023-05-23T08:56:06;13.70;99.90
12817;DHT22;6473;51.552;6.716;2023-05-23T08:58:45;13.70;99.90
12817;DHT22;6473;51.552;6.716;2023-05-23T09:01:14;14.90;99.90
12817;DHT22;6473;51.552;6.716;2023-05-23T09:03:44;13.50;99.90
12817;DHT22;6473;51.552;6.716;2023-05-23T09:06:20;13.40;99.90
12817;DHT22;6473;51.552;6.716;2023-05-23T09:08:47;13.30;99.90
12817;DHT22;6473;51.552;6.716;2023-05-23T09:11:17;13.30;99.90
12817;DHT22;6473;51.552;6.716;2023-05-23T09:13:49;13.40;99.90
12817;DHT22;6473;51.552;6.716;2023-05-23T09:16:18;13.40;99.90
12817;DHT22;6473;51.552;6.716;2023-05-23T09:18:52;13.30;99.90
12817;DHT22;6473;51.552;6.716;2023-05-23T09:21:23;13.20;99.90
12817;DHT22;6473;51.552;6.716;2023-05-23T09:24:01;13.20;99.90
12817;DHT22;6473;51.552;6.716;2023-05-23T09:26:29;13.10;99.90
12817;DHT22;6473;51.552;6.716;2023-05-23T09:28:58;13.10;99.90
12817;DHT22;6473;51.552;6.716;2023-05-23T09:31:27;13.10;99.90
12817;DHT22;6473;51.552;6.716;2023-05-23T09:33:57;13.10;99.90
12817;DHT22;6473;51.552;6.716;2023-05-23T09:36:27;13.30;99.90
12817;DHT22;6473;51.552;6.716;2023-05-23T09:39:01;13.50;99.90
12817;DHT22;6473;51.552;6.716;2023-05-23T09:41:32;13.60;99.90
12817;DHT22;6473;51.552;6.716;2023-05-23T09:44:05;13.60;99.90
12817;DHT22;6473;51.552;6.716;2023-05-23T09:46:35;13.70;99.90
12817;DHT22;6473;51.552;6.716;2023-05-23T09:49:14;13.90;99.90
12817;DHT22;6473;51.552;6.716;2023-05-23T09:51:42;14.00;99.90
12817;DHT22;6473;51.552;6.716;2023-05-23T09:54:10;14.30;99.90
12817;DHT22;6473;51.552;6.716;2023-05-23T09:56:39;14.70;99.90
12817;DHT22;6473;51.552;6.716;2023-05-23T09:59:10;15.30;99.90
12817;DHT22;6473;51.552;6.716;2023-05-23T10:01:42;16.20;99.90
12817;DHT22;6473;51.552;6.716;2023-05-23T10:04:13;17.20;99.90
12817;DHT22;6473;51.552;6.716;2023-05-23T10:06:48;18.10;98.50
12817;DHT22;6473;51.552;6.716;2023-05-23T10:09:18;18.70;99.60
12817;DHT22;6473;51.552;6.716;2023-05-23T10:15:02;18.00;99.30
12817;DHT22;6473;51.552;6.716;2023-05-23T10:17:35;17.50;99.90
12817;DHT22;6473;51.552;6.716;2023-05-23T10:20:04;17.30;99.90
12817;DHT22;6473;51.552;6.716;2023-05-23T10:22:35;17.30;96.00
12817;DHT22;6473;51.552;6.716;2023-05-23T10:25:05;17.30;98.70
12817;DHT22;6473;51.552;6.716;2023-05-23T10:27:33;16.90;99.90
12817;DHT22;6473;51.552;6.716;2023-05-23T10:30:01;17.10;99.40
12817;DHT22;6473;51.552;6.716;2023-05-23T10:32:29;16.90;99.70
12817;DHT22;6473;51.552;6.716;2023-05-23T10:35:00;16.60;97.00
12817;DHT22;6473;51.552;6.716;2023-05-23T10:37:34;16.60;97.10
12817;DHT22;6473;51.552;6.716;2023-05-23T10:40:06;16.70;99.90
12817;DHT22;6473;51.552;6.716;2023-05-23T10:42:43;16.50;99.70
12817;DHT22;6473;51.552;6.716;2023-05-23T10:45:16;16.70;99.90
12817;DHT22;6473;51.552;6.716;2023-05-23T10:47:46;16.50;99.90
12817;DHT22;6473;51.552;6.716;2023-05-23T10:50:15;16.60;99.90
12817;DHT22;6473;51.552;6.716;2023-05-23T10:52:43;16.40;98.60
12817;DHT22;6473;51.552;6.716;2023-05-23T10:55:14;16.70;99.90
12817;DHT22;6473;51.552;6.716;2023-05-23T10:57:43;17.60;95.90
12817;DHT22;6473;51.552;6.716;2023-05-23T11:00:15;18.50;84.70
12817;DHT22;6473;51.552;6.716;2023-05-23T11:05:19;19.20;76.20
12817;DHT22;6473;51.552;6.716;2023-05-23T11:08:05;18.80;74.90
12817;DHT22;6473;51.552;6.716;2023-05-23T11:10:50;18.20;81.20
12817;DHT22;6473;51.552;6.716;2023-05-23T11:13:18;17.60;90.30
12817;DHT22;6473;51.552;6.716;2023-05-23T11:15:47;17.10;94.00
12817;DHT22;6473;51.552;6.716;2023-05-23T11:18:26;16.90;99.00
12817;DHT22;6473;51.552;6.716;2023-05-23T11:20:53;16.60;97.80
12817;DHT22;6473;51.552;6.716;2023-05-23T11:23:21;16.50;97.50
12817;DHT22;6473;51.552;6.716;2023-05-23T11:25:49;16.50;97.00
12817;DHT22;6473;51.552;6.716;2023-05-23T11:28:18;16.50;99.00
12817;DHT22;6473;51.552;6.716;2023-05-23T11:30:48;17.20;98.60
12817;DHT22;6473;51.552;6.716;2023-05-23T11:33:16;16.70;95.90
12817;DHT22;6473;51.552;6.716;2023-05-23T11:35:46;17.50;94.60
12817;DHT22;6473;51.552;6.716;2023-05-23T11:38:13;18.80;53.90
12817;DHT22;6473;51.552;6.716;2023-05-23T11:40:41;20.00;53.00
12817;DHT22;6473;51.552;6.716;2023-05-23T11:43:10;20.80;9.70
12817;DHT22;6473;51.552;6.716;2023-05-23T11:45:38;21.30;1.50
12817;DHT22;6473;51.552;6.716;2023-05-23T11:48:07;20.90;12.10
12817;DHT22;6473;51.552;6.716;2023-05-23T11:50:43;20.60;9.40
12817;DHT22;6473;51.552;6.716;2023-05-23T11:53:10;20.00;4.50
12817;DHT22;6473;51.552;6.716;2023-05-23T11:55:38;19.60;16.30
12817;DHT22;6473;51.552;6.716;2023-05-23T11:58:05;19.90;23.50
12817;DHT22;6473;51.552;6.716;2023-05-23T12:00:32;19.90;16.20
12817;DHT22;6473;51.552;6.716;2023-05-23T12:03:07;20.10;2.40
12817;DHT22;6473;51.552;6.716;2023-05-23T12:05:34;20.70;1.00
12817;DHT22;6473;51.552;6.716;2023-05-23T12:08:00;21.80;1.00
12817;DHT22;6473;51.552;6.716;2023-05-23T12:10:27;22.30;1.00
12817;DHT22;6473;51.552;6.716;2023-05-23T12:12:55;22.40;1.00
12817;DHT22;6473;51.552;6.716;2023-05-23T12:15:25;22.40;1.00
12817;DHT22;6473;51.552;6.716;2023-05-23T12:17:54;23.20;1.00
12817;DHT22;6473;51.552;6.716;2023-05-23T12:20:24;21.90;1.00
12817;DHT22;6473;51.552;6.716;2023-05-23T12:22:53;24.50;1.00
12817;DHT22;6473;51.552;6.716;2023-05-23T12:25:20;25.60;1.00
12817;DHT22;6473;51.552;6.716;2023-05-23T12:27:48;25.10;1.00
12817;DHT22;6473;51.552;6.716;2023-05-23T12:30:15;23.90;1.00
12817;DHT22;6473;51.552;6.716;2023-05-23T12:32:44;22.70;1.00
12817;DHT22;6473;51.552;6.716;2023-05-23T12:35:12;22.20;1.00
12817;DHT22;6473;51.552;6.716;2023-05-23T12:37:41;21.80;1.00
12817;DHT22;6473;51.552;6.716;2023-05-23T12:40:14;21.50;1.00
12817;DHT22;6473;51.552;6.716;2023-05-23T12:42:50;21.10;1.00
12817;DHT22;6473;51.552;6.716;2023-05-23T12:45:18;20.90;1.00
12817;DHT22;6473;51.552;6.716;2023-05-23T12:47:45;20.80;1.00
12817;DHT22;6473;51.552;6.716;2023-05-23T12:50:12;20.70;1.00
12817;DHT22;6473;51.552;6.716;2023-05-23T12:52:41;22.30;1.00
12817;DHT22;6473;51.552;6.716;2023-05-23T12:55:08;22.50;1.00
12817;DHT22;6473;51.552;6.716;2023-05-23T12:57:35;23.50;1.00
12817;DHT22;6473;51.552;6.716;2023-05-23T13:00:03;24.30;1.00
12817;DHT22;6473;51.552;6.716;2023-05-23T13:02:31;23.80;1.00
12817;DHT22;6473;51.552;6.716;2023-05-23T13:04:58;23.70;1.00
12817;DHT22;6473;51.552;6.716;2023-05-23T13:07:25;23.50;1.00
12817;DHT22;6473;51.552;6.716;2023-05-23T13:09:53;22.40;1.00
12817;DHT22;6473;51.552;6.716;2023-05-23T13:12:20;22.10;1.00
12817;DHT22;6473;51.552;6.716;2023-05-23T13:14:47;22.30;1.00
12817;DHT22;6473;51.552;6.716;2023-05-23T13:17:14;22.20;1.00
12817;DHT22;6473;51.552;6.716;2023-05-23T13:19:41;21.90;1.00
12817;DHT22;6473;51.552;6.716;2023-05-23T13:22:08;22.20;1.00
12817;DHT22;6473;51.552;6.716;2023-05-23T13:24:35;21.20;1.00
12817;DHT22;6473;51.552;6.716;2023-05-23T13:27:03;20.80;1.00
12817;DHT22;6473;51.552;6.716;2023-05-23T13:29:30;21.20;1.00
12817;DHT22;6473;51.552;6.716;2023-05-23T13:31:58;22.00;1.00
12817;DHT22;6473;51.552;6.716;2023-05-23T13:34:25;22.20;1.00
12817;DHT22;6473;51.552;6.716;2023-05-23T13:36:53;21.60;1.00
12817;DHT22;6473;51.552;6.716;2023-05-23T13:39:20;21.40;1.00
12817;DHT22;6473;51.552;6.716;2023-05-23T13:41:48;21.40;1.00
12817;DHT22;6473;51.552;6.716;2023-05-23T13:44:16;21.60;1.00
12817;DHT22;6473;51.552;6.716;2023-05-23T13:46:43;21.70;1.00
12817;DHT22;6473;51.552;6.716;2023-05-23T13:49:10;22.20;1.00
12817;DHT22;6473;51.552;6.716;2023-05-23T13:51:37;22.80;1.00
12817;DHT22;6473;51.552;6.716;2023-05-23T13:54:04;23.20;1.00
12817;DHT22;6473;51.552;6.716;2023-05-23T13:56:31;23.80;1.00
12817;DHT22;6473;51.552;6.716;2023-05-23T13:58:59;24.10;1.00
12817;DHT22;6473;51.552;6.716;2023-05-23T14:01:27;23.60;1.00
12817;DHT22;6473;51.552;6.716;2023-05-23T14:03:54;22.90;1.00
12817;DHT22;6473;51.552;6.716;2023-05-23T14:06:21;22.60;1.00
12817;DHT22;6473;51.552;6.716;2023-05-23T14:08:48;22.00;1.00
12817;DHT22;6473;51.552;6.716;2023-05-23T14:11:15;21.40;1.00
12817;DHT22;6473;51.552;6.716;2023-05-23T14:13:42;21.30;1.00
12817;DHT22;6473;51.552;6.716;2023-05-23T14:16:08;21.60;1.00
12817;DHT22;6473;51.552;6.716;2023-05-23T14:18:37;22.30;1.00
12817;DHT22;6473;51.552;6.716;2023-05-23T14:21:03;20.70;1.00
12817;DHT22;6473;51.552;6.716;2023-05-23T14:23:30;20.60;1.00
12817;DHT22;6473;51.552;6.716;2023-05-23T14:25:57;21.10;1.00
12817;DHT22;6473;51.552;6.716;2023-05-23T14:28:24;21.60;1.00
12817;DHT22;6473;51.552;6.716;2023-05-23T14:30:51;21.50;1.00
12817;DHT22;6473;51.552;6.716;2023-05-23T14:33:18;22.20;1.00
12817;DHT22;6473;51.552;6.716;2023-05-23T14:35:46;20.90;1.00
12817;DHT22;6473;51.552;6.716;2023-05-23T14:38:13;20.50;1.00
12817;DHT22;6473;51.552;6.716;2023-05-23T14:40:40;20.10;1.00
12817;DHT22;6473;51.552;6.716;2023-05-23T14:43:07;19.60;1.00
12817;DHT22;6473;51.552;6.716;2023-05-23T14:45:34;19.30;1.00
12817;DHT22;6473;51.552;6.716;2023-05-23T14:48:01;18.80;1.00
12817;DHT22;6473;51.552;6.716;2023-05-23T14:50:28;18.70;1.00
12817;DHT22;6473;51.552;6.716;2023-05-23T14:52:56;18.40;1.00
12817;DHT22;6473;51.552;6.716;2023-05-23T14:55:24;18.90;1.00
12817;DHT22;6473;51.552;6.716;2023-05-23T14:57:50;18.10;1.00
12817;DHT22;6473;51.552;6.716;2023-05-23T15:00:18;18.00;1.00
12817;DHT22;6473;51.552;6.716;2023-05-23T15:02:45;17.70;1.00
12817;DHT22;6473;51.552;6.716;2023-05-23T15:05:12;17.50;1.00
12817;DHT22;6473;51.552;6.716;2023-05-23T15:07:39;17.40;2.30
12817;DHT22;6473;51.552;6.716;2023-05-23T15:10:08;17.20;5.20
12817;DHT22;6473;51.552;6.716;2023-05-23T15:12:35;17.40;8.00
12817;DHT22;6473;51.552;6.716;2023-05-23T15:15:02;18.00;1.00
12817;DHT22;6473;51.552;6.716;2023-05-23T15:17:29;17.30;3.00
12817;DHT22;6473;51.552;6.716;2023-05-23T15:19:56;17.30;3.60
12817;DHT22;6473;51.552;6.716;2023-05-23T15:22:22;17.40;9.10
12817;DHT22;6473;51.552;6.716;2023-05-23T15:24:49;17.40;9.40
12817;DHT22;6473;51.552;6.716;2023-05-23T15:27:18;17.40;11.20
12817;DHT22;6473;51.552;6.716;2023-05-23T15:29:47;17.50;9.40
12817;DHT22;6473;51.552;6.716;2023-05-23T15:32:13;17.70;13.00
12817;DHT22;6473;51.552;6.716;2023-05-23T15:34:40;17.40;4.60
12817;DHT22;6473;51.552;6.716;2023-05-23T15:37:08;17.20;1.00
12817;DHT22;6473;51.552;6.716;2023-05-23T15:39:35;17.30;1.00
12817;DHT22;6473;51.552;6.716;2023-05-23T15:42:02;17.30;1.00
12817;DHT22;6473;51.552;6.716;2023-05-23T15:44:30;17.50;1.00
12817;DHT22;6473;51.552;6.716;2023-05-23T15:46:57;17.70;1.00
12817;DHT22;6473;51.552;6.716;2023-05-23T15:49:24;18.40;1.00
12817;DHT22;6473;51.552;6.716;2023-05-23T15:51:51;17.80;1.00
12817;DHT22;6473;51.552;6.716;2023-05-23T15:54:18;17.90;1.00
12817;DHT22;6473;51.552;6.716;2023-05-23T15:56:45;17.80;1.00
12817;DHT22;6473;51.552;6.716;2023-05-23T15:59:12;17.80;1.00
12817;DHT22;6473;51.552;6.716;2023-05-23T16:01:40;17.60;1.00
12817;DHT22;6473;51.552;6.716;2023-05-23T16:04:07;17.80;1.00
12817;DHT22;6473;51.552;6.716;2023-05-23T16:06:34;17.80;1.00